createdAt,value
2023-05-22T00:00:22.102Z,3.87
2023-05-22T00:02:50.964Z,3.80
2023-05-22T00:05:20.605Z,3.77
2023-05-22T00:07:49.083Z,3.63
2023-05-22T00:10:17.526Z,3.50
2023-05-22T00:12:45.906Z,3.60
2023-05-22T00:15:14.315Z,3.70
2023-05-22T00:17:44.531Z,3.60
2023-05-22T00:20:13.756Z,3.50
2023-05-22T00:22:42.331Z,3.87
2023-05-22T00:25:12.558Z,3.70
2023-05-22T00:27:40.960Z,2.87
2023-05-22T00:30:10.836Z,3.50
2023-05-22T00:32:39.324Z,4.50
2023-05-22T00:35:11.168Z,3.23
2023-05-22T00:37:39.559Z,3.33
2023-05-22T00:40:10.396Z,4.10
2023-05-22T00:42:38.714Z,3.60
2023-05-22T00:45:08.440Z,2.90
2023-05-22T00:47:37.986Z,3.23
2023-05-22T00:50:08.926Z,3.30
2023-05-22T00:52:39.248Z,3.00
2023-05-22T00:55:09.891Z,3.73
2023-05-22T00:57:40.326Z,2.80
2023-05-22T01:00:11.771Z,4.07
2023-05-22T01:02:42.986Z,3.60
2023-05-22T01:05:18.324Z,3.43
2023-05-22T01:07:46.872Z,3.13
2023-05-22T01:10:15.196Z,3.33
2023-05-22T01:12:49.548Z,3.83
2023-05-22T01:15:23.396Z,3.60
2023-05-22T01:17:57.552Z,3.40
2023-05-22T01:20:32.282Z,3.37
2023-05-22T01:23:37.371Z,3.87
2023-05-22T01:26:46.214Z,4.17
2023-05-22T01:29:29.888Z,3.03
2023-05-22T01:32:00.378Z,3.73
2023-05-22T01:34:28.722Z,3.63
2023-05-22T01:36:57.063Z,3.30
2023-05-22T01:39:25.509Z,3.50
2023-05-22T01:41:53.869Z,2.90
2023-05-22T01:44:23.530Z,3.53
2023-05-22T01:46:51.883Z,3.07
2023-05-22T01:49:21.688Z,3.30
2023-05-22T01:51:53.901Z,3.50
2023-05-22T01:54:26.830Z,3.47
2023-05-22T01:56:58.214Z,3.80
2023-05-22T01:59:31.521Z,3.80
2023-05-22T02:02:04.250Z,3.40
2023-05-22T02:04:34.270Z,3.50
2023-05-22T02:07:02.624Z,4.00
2023-05-22T02:09:32.061Z,3.53
2023-05-22T02:12:01.319Z,3.40
2023-05-22T02:14:30.122Z,3.87
2023-05-22T02:16:58.616Z,3.93
2023-05-22T02:19:27.019Z,3.20
2023-05-22T02:21:56.890Z,3.53
2023-05-22T02:24:25.544Z,3.63
2023-05-22T02:26:53.916Z,3.87
2023-05-22T02:29:22.189Z,4.00
2023-05-22T02:31:50.690Z,3.60
2023-05-22T02:37:06.670Z,3.70
2023-05-22T02:39:34.978Z,3.90
2023-05-22T02:42:03.630Z,3.80
2023-05-22T02:44:31.994Z,4.17
2023-05-22T02:47:00.375Z,4.40
2023-05-22T02:49:28.723Z,4.20
2023-05-22T02:51:57.080Z,3.73
2023-05-22T02:54:26.867Z,4.20
2023-05-22T02:56:55.235Z,3.90
2023-05-22T02:59:23.607Z,4.00
2023-05-22T03:01:54.491Z,3.87
2023-05-22T03:04:22.924Z,3.80
2023-05-22T03:06:51.227Z,4.53
2023-05-22T03:09:20.289Z,4.90
2023-05-22T03:11:50.055Z,2.90
2023-05-22T03:14:18.401Z,3.63
2023-05-22T03:16:46.843Z,3.87
2023-05-22T03:19:16.044Z,4.07
2023-05-22T03:21:44.642Z,4.87
2023-05-22T03:24:13.618Z,3.50
2023-05-22T03:26:41.907Z,4.10
2023-05-22T03:29:11.646Z,4.07
2023-05-22T03:31:40.225Z,4.40
2023-05-22T03:34:08.658Z,3.50
2023-05-22T03:36:37.145Z,3.83
2023-05-22T03:39:05.626Z,4.30
2023-05-22T03:41:33.973Z,4.47
2023-05-22T03:44:03.137Z,4.87
2023-05-22T03:46:32.846Z,3.90
2023-05-22T03:49:01.226Z,4.50
2023-05-22T03:51:29.566Z,4.57
2023-05-22T03:53:57.912Z,4.50
2023-05-22T03:56:26.605Z,4.07
2023-05-22T03:58:54.890Z,4.97
2023-05-22T04:01:23.632Z,3.80
2023-05-22T04:03:53.414Z,4.40
2023-05-22T04:06:22.034Z,5.03
2023-05-22T04:08:50.353Z,4.60
2023-05-22T04:11:19.763Z,4.50
2023-05-22T04:13:50.750Z,4.63
2023-05-22T04:16:19.198Z,4.40
2023-05-22T04:18:47.574Z,4.00
2023-05-22T04:21:17.546Z,3.87
2023-05-22T04:23:45.910Z,4.70
2023-05-22T04:26:14.305Z,4.00
2023-05-22T04:28:46.234Z,3.93
2023-05-22T04:31:14.647Z,3.83
2023-05-22T04:33:44.632Z,4.80
2023-05-22T04:36:12.997Z,4.33
2023-05-22T04:38:44.847Z,4.37
2023-05-22T04:41:14.309Z,4.40
2023-05-22T04:43:42.823Z,4.80
2023-05-22T04:46:11.200Z,4.20
2023-05-22T04:48:40.219Z,4.60
2023-05-22T04:51:09.547Z,4.30
2023-05-22T04:53:38.761Z,4.60
2023-05-22T04:56:09.155Z,4.80
2023-05-22T04:58:38.197Z,4.70
2023-05-22T05:01:06.922Z,4.20
2023-05-22T05:03:36.184Z,3.90
2023-05-22T05:06:05.002Z,4.27
2023-05-22T05:08:33.344Z,4.90
2023-05-22T05:11:01.694Z,3.87
2023-05-22T05:13:31.502Z,4.50
2023-05-22T05:16:00.856Z,4.20
2023-05-22T05:18:29.217Z,4.43
2023-05-22T05:20:57.691Z,4.33
2023-05-22T05:23:26.265Z,4.27
2023-05-22T05:25:54.588Z,4.90
2023-05-22T05:28:22.952Z,4.80
2023-05-22T05:30:52.926Z,4.53
2023-05-22T05:33:21.345Z,5.03
2023-05-22T05:35:52.644Z,5.10
2023-05-22T05:38:21.122Z,4.80
2023-05-22T05:40:50.062Z,4.40
2023-05-22T05:43:18.426Z,4.20
2023-05-22T05:45:46.752Z,4.50
2023-05-22T05:48:16.697Z,4.23
2023-05-22T05:50:45.092Z,4.33
2023-05-22T05:53:13.665Z,4.77
2023-05-22T05:55:41.980Z,3.73
2023-05-22T05:58:10.464Z,4.13
2023-05-22T06:00:39.322Z,4.70
2023-05-22T06:03:07.900Z,5.20
2023-05-22T06:05:37.717Z,4.80
2023-05-22T06:08:08.646Z,4.47
2023-05-22T06:10:37.430Z,5.37
2023-05-22T06:13:06.414Z,4.53
2023-05-22T06:15:34.908Z,4.70
2023-05-22T06:18:03.403Z,4.73
2023-05-22T06:20:31.922Z,5.20
2023-05-22T06:23:01.698Z,4.67
2023-05-22T06:25:31.045Z,4.30
2023-05-22T06:27:59.396Z,5.00
2023-05-22T06:30:39.424Z,4.97
2023-05-22T06:33:09.016Z,4.30
2023-05-22T06:35:37.512Z,5.03
2023-05-22T06:38:07.238Z,5.13
2023-05-22T06:40:35.521Z,4.63
2023-05-22T06:43:03.881Z,4.37
2023-05-22T06:45:32.265Z,5.07
2023-05-22T06:48:00.842Z,5.00
2023-05-22T06:50:29.297Z,4.90
2023-05-22T06:52:57.735Z,4.60
2023-05-22T06:55:27.502Z,4.63
2023-05-22T06:57:55.885Z,4.40
2023-05-22T07:00:24.402Z,4.23
2023-05-22T07:02:52.890Z,4.97
2023-05-22T07:05:21.392Z,4.90
2023-05-22T07:07:49.779Z,5.07
2023-05-22T07:10:18.207Z,4.60
2023-05-22T07:12:47.875Z,5.53
2023-05-22T07:15:16.504Z,4.70
2023-05-22T07:17:44.936Z,5.20
2023-05-22T07:20:15.971Z,4.60
2023-05-22T07:22:44.340Z,5.07
2023-05-22T07:25:12.822Z,5.20
2023-05-22T07:27:41.199Z,4.77
2023-05-22T07:30:12.574Z,4.80
2023-05-22T07:32:41.247Z,5.10
2023-05-22T07:35:11.691Z,4.90
2023-05-22T07:37:40.004Z,4.37
2023-05-22T07:40:11.150Z,4.10
2023-05-22T07:42:39.515Z,4.80
2023-05-22T07:45:11.050Z,4.37
2023-05-22T07:47:39.504Z,4.23
2023-05-22T07:50:09.937Z,4.40
2023-05-22T07:52:38.327Z,4.43
2023-05-22T07:55:08.665Z,4.60
2023-05-22T07:57:37.132Z,4.17
2023-05-22T08:00:14.022Z,4.77
2023-05-22T08:02:44.142Z,4.13
2023-05-22T08:05:13.624Z,4.73
2023-05-22T08:07:42.253Z,3.57
2023-05-22T08:10:19.483Z,4.87
2023-05-22T08:12:47.831Z,4.50
2023-05-22T08:15:16.217Z,4.00
2023-05-22T08:17:45.986Z,4.50
2023-05-22T08:20:14.667Z,3.70
2023-05-22T08:22:43.132Z,4.10
2023-05-22T08:25:11.668Z,4.80
2023-05-22T08:27:39.998Z,4.40
2023-05-22T08:30:09.767Z,4.20
2023-05-22T08:32:38.190Z,3.80
2023-05-22T08:35:09.282Z,3.63
2023-05-22T08:37:37.823Z,4.33
2023-05-22T08:40:08.536Z,3.70
2023-05-22T08:42:36.984Z,4.23
2023-05-22T08:45:07.091Z,4.13
2023-05-22T08:47:36.654Z,4.00
2023-05-22T08:50:07.823Z,4.17
2023-05-22T08:52:39.834Z,3.17
2023-05-22T08:55:09.749Z,3.00
2023-05-22T08:57:38.122Z,3.73
2023-05-22T09:00:09.392Z,3.37
2023-05-22T09:02:37.966Z,3.90
2023-05-22T09:05:09.813Z,4.27
2023-05-22T09:07:40.776Z,3.10
2023-05-22T09:10:09.942Z,3.20
2023-05-22T09:12:38.251Z,3.37
2023-05-22T09:15:11.143Z,3.77
2023-05-22T09:17:41.608Z,3.57
2023-05-22T09:20:15.769Z,4.30
2023-05-22T09:22:44.197Z,2.73
2023-05-22T09:25:12.575Z,2.90
2023-05-22T09:27:40.903Z,2.93
2023-05-22T09:30:10.435Z,2.90
2023-05-22T09:32:38.755Z,2.60
2023-05-22T09:35:08.170Z,2.53
2023-05-22T09:37:38.403Z,3.00
2023-05-22T09:40:08.140Z,2.43
2023-05-22T09:42:36.602Z,2.50
2023-05-22T09:45:05.930Z,2.60
2023-05-22T09:47:35.227Z,2.60
2023-05-22T09:50:07.205Z,2.40
2023-05-22T09:52:37.730Z,3.20
2023-05-22T09:55:08.657Z,2.60
2023-05-22T09:57:42.909Z,2.70
2023-05-22T10:00:18.022Z,2.40
2023-05-22T10:02:47.140Z,3.10
2023-05-22T10:05:21.705Z,2.70
2023-05-22T10:07:52.895Z,3.20
2023-05-22T10:10:22.973Z,3.00
2023-05-22T10:12:54.399Z,3.30
2023-05-22T10:15:23.094Z,3.20
2023-05-22T10:17:51.572Z,3.20
2023-05-22T10:20:20.651Z,3.10
2023-05-22T10:22:49.953Z,2.37
2023-05-22T10:25:19.813Z,3.33
2023-05-22T10:27:48.149Z,3.10
2023-05-22T10:30:24.145Z,2.87
2023-05-22T10:32:57.153Z,3.23
2023-05-22T10:35:30.430Z,2.50
2023-05-22T10:38:08.444Z,2.70
2023-05-22T10:40:38.339Z,3.27
2023-05-22T10:43:06.671Z,2.87
2023-05-22T10:45:36.585Z,2.83
2023-05-22T10:48:06.592Z,3.10
2023-05-22T10:50:35.083Z,2.90
2023-05-22T10:53:24.487Z,2.90
2023-05-22T10:55:55.253Z,2.77
2023-05-22T10:58:28.450Z,2.90
2023-05-22T11:01:17.948Z,2.90
2023-05-22T11:03:57.287Z,2.47
2023-05-22T11:06:33.872Z,2.40
2023-05-22T11:09:17.563Z,2.80
2023-05-22T11:11:47.641Z,2.60
2023-05-22T11:14:18.181Z,2.63
2023-05-22T11:16:46.630Z,2.83
2023-05-22T11:19:23.371Z,2.97
2023-05-22T11:21:52.573Z,3.07
2023-05-22T11:24:20.975Z,2.77
2023-05-22T11:27:04.431Z,3.07
2023-05-22T11:29:32.874Z,2.40
2023-05-22T11:32:01.187Z,2.67
2023-05-22T11:34:29.532Z,3.37
2023-05-22T11:37:00.963Z,2.70
2023-05-22T11:39:29.326Z,2.93
2023-05-22T11:41:57.979Z,3.07
2023-05-22T11:44:29.988Z,3.50
2023-05-22T11:46:58.370Z,2.67
2023-05-22T11:49:26.736Z,2.27
2023-05-22T11:51:55.096Z,2.40
2023-05-22T11:54:24.138Z,2.83
2023-05-22T11:56:52.506Z,2.90
2023-05-22T11:59:22.922Z,2.90
2023-05-22T12:01:53.286Z,2.63
2023-05-22T12:04:21.697Z,2.57
2023-05-22T12:06:50.171Z,2.50
2023-05-22T12:09:18.672Z,3.00
2023-05-22T12:11:47.838Z,2.70
2023-05-22T12:14:16.268Z,3.60
2023-05-22T12:16:45.225Z,3.23
2023-05-22T12:19:15.675Z,3.33
2023-05-22T12:21:45.372Z,3.70
2023-05-22T12:24:13.718Z,2.40
2023-05-22T12:26:42.145Z,2.70
2023-05-22T12:29:10.490Z,2.87
2023-05-22T12:31:39.151Z,2.63
2023-05-22T12:34:08.734Z,2.53
2023-05-22T12:36:40.259Z,2.70
2023-05-22T12:39:10.250Z,2.80
2023-05-22T12:41:38.662Z,2.50
2023-05-22T12:44:07.079Z,2.70
2023-05-22T12:46:35.499Z,2.43
2023-05-22T12:49:03.985Z,2.53
2023-05-22T12:51:33.691Z,3.00
2023-05-22T12:54:03.656Z,2.67
2023-05-22T12:56:32.350Z,2.90
2023-05-22T12:59:00.840Z,2.90
2023-05-22T13:01:29.320Z,1.90
2023-05-22T13:03:57.655Z,2.57
2023-05-22T13:06:27.954Z,2.40
2023-05-22T13:08:58.664Z,2.60
2023-05-22T13:11:28.376Z,2.93
2023-05-22T13:13:56.791Z,2.93
2023-05-22T13:16:25.244Z,2.73
2023-05-22T13:18:53.729Z,2.83
2023-05-22T13:21:23.626Z,2.30
2023-05-22T13:23:53.494Z,2.70
2023-05-22T13:26:22.811Z,3.00
2023-05-22T13:28:52.553Z,2.37
2023-05-22T13:31:21.315Z,2.77
2023-05-22T13:33:49.706Z,2.70
2023-05-22T13:36:18.866Z,2.50
2023-05-22T13:38:47.649Z,2.90
2023-05-22T13:41:17.671Z,2.83
2023-05-22T13:43:46.538Z,3.10
2023-05-22T13:46:17.686Z,2.33
2023-05-22T13:48:46.156Z,2.90
2023-05-22T13:51:14.826Z,2.70
2023-05-22T13:53:43.152Z,2.80
2023-05-22T13:56:11.477Z,2.43
2023-05-22T13:58:39.833Z,2.93
2023-05-22T14:01:08.233Z,2.97
2023-05-22T14:03:38.014Z,2.43
2023-05-22T14:06:06.970Z,2.97
2023-05-22T14:08:35.369Z,2.77
2023-05-22T14:11:03.838Z,2.50
2023-05-22T14:13:32.508Z,3.10
2023-05-22T14:16:00.903Z,3.57
2023-05-22T14:18:29.370Z,3.33
2023-05-22T14:20:59.160Z,2.70
2023-05-22T14:23:27.518Z,2.67
2023-05-22T14:25:55.788Z,3.10
2023-05-22T14:28:24.479Z,3.27
2023-05-22T14:30:53.017Z,2.40
2023-05-22T14:33:21.427Z,2.97
2023-05-22T14:35:51.202Z,2.73
2023-05-22T14:38:20.883Z,2.13
2023-05-22T14:40:49.771Z,2.67
2023-05-22T14:43:18.200Z,2.80
2023-05-22T14:45:46.486Z,2.60
2023-05-22T14:48:15.044Z,2.37
2023-05-22T14:50:43.438Z,2.60
2023-05-22T14:53:11.852Z,2.23
2023-05-22T14:55:41.819Z,3.20
2023-05-22T14:58:10.405Z,2.60
2023-05-22T15:00:38.736Z,3.10
2023-05-22T15:03:07.180Z,2.53
2023-05-22T15:05:35.593Z,2.67
2023-05-22T15:08:04.034Z,2.70
2023-05-22T15:10:32.529Z,3.20
2023-05-22T15:13:02.323Z,2.70
2023-05-22T15:15:30.769Z,3.20
2023-05-22T15:18:02.608Z,2.63
2023-05-22T15:20:31.129Z,2.60
2023-05-22T15:23:00.345Z,2.93
2023-05-22T15:25:28.826Z,2.80
2023-05-22T15:27:57.261Z,3.53
2023-05-22T15:30:27.303Z,2.73
2023-05-22T15:32:55.667Z,2.90
2023-05-22T15:35:24.300Z,2.70
2023-05-22T15:37:52.724Z,3.37
2023-05-22T15:40:22.609Z,2.70
2023-05-22T15:42:51.005Z,2.80
2023-05-22T15:45:19.416Z,2.80
2023-05-22T15:47:49.118Z,2.80
2023-05-22T15:50:17.541Z,2.70
2023-05-22T15:52:45.866Z,2.73
2023-05-22T15:55:14.228Z,3.20
2023-05-22T15:57:42.563Z,2.70
2023-05-22T16:00:12.604Z,3.17
2023-05-22T16:02:41.050Z,2.63
2023-05-22T16:05:11.427Z,2.80
2023-05-22T16:07:39.917Z,2.93
2023-05-22T16:10:09.723Z,2.70
2023-05-22T16:12:39.831Z,3.03
2023-05-22T16:15:10.081Z,2.83
2023-05-22T16:17:39.948Z,3.47
2023-05-22T16:20:11.288Z,3.07
2023-05-22T16:25:16.766Z,3.57
2023-05-22T16:27:45.258Z,3.10
2023-05-22T16:30:16.715Z,3.23
2023-05-22T16:32:46.675Z,2.67
2023-05-22T16:35:16.594Z,2.87
2023-05-22T16:37:45.005Z,3.00
2023-05-22T16:40:13.704Z,2.83
2023-05-22T16:42:42.095Z,3.27
2023-05-22T16:45:11.047Z,3.33
2023-05-22T16:47:39.752Z,4.00
2023-05-22T16:50:09.693Z,3.30
2023-05-22T16:52:39.418Z,3.13
2023-05-22T16:55:09.642Z,3.10
2023-05-22T16:57:37.989Z,2.53
2023-05-22T17:00:10.907Z,2.70
2023-05-22T17:02:39.545Z,3.23
2023-05-22T17:05:09.088Z,3.17
2023-05-22T17:07:38.871Z,3.37
2023-05-22T17:10:08.683Z,3.10
2023-05-22T17:12:37.029Z,2.90
2023-05-22T17:15:06.606Z,2.83
2023-05-22T17:17:35.018Z,2.80
2023-05-22T17:20:06.056Z,3.17
2023-05-22T17:22:36.059Z,2.73
2023-05-22T17:25:06.861Z,2.70
2023-05-22T17:27:36.502Z,2.37
2023-05-22T17:30:06.899Z,3.07
2023-05-22T17:32:35.557Z,3.00
2023-05-22T17:35:06.017Z,2.77
2023-05-22T17:37:35.314Z,2.90
2023-05-22T17:40:05.829Z,3.07
2023-05-22T17:42:34.218Z,2.77
2023-05-22T17:45:02.651Z,3.43
2023-05-22T17:47:31.046Z,3.37
2023-05-22T17:49:59.504Z,3.27
2023-05-22T17:52:27.898Z,3.03
2023-05-22T17:54:56.934Z,3.17
2023-05-22T17:57:26.700Z,3.33
2023-05-22T17:59:55.073Z,3.13
2023-05-22T18:02:23.546Z,4.00
2023-05-22T18:04:52.026Z,3.70
2023-05-22T18:07:28.582Z,3.33
2023-05-22T18:09:57.141Z,3.63
2023-05-22T18:12:31.747Z,2.90
2023-05-22T18:15:00.769Z,3.23
2023-05-22T18:17:29.163Z,3.17
2023-05-22T18:19:57.537Z,2.63
2023-05-22T18:22:27.303Z,3.13
2023-05-22T18:24:55.644Z,3.20
2023-05-22T18:27:24.070Z,2.87
2023-05-22T18:29:52.535Z,2.80
2023-05-22T18:32:20.955Z,3.27
2023-05-22T18:34:49.603Z,3.67
2023-05-22T18:37:18.898Z,3.63
2023-05-22T18:39:48.718Z,3.50
2023-05-22T18:42:17.115Z,3.07
2023-05-22T18:44:46.884Z,3.10
2023-05-22T18:47:17.201Z,3.50
2023-05-22T18:49:45.587Z,3.83
2023-05-22T18:52:14.022Z,3.73
2023-05-22T18:54:42.458Z,2.87
2023-05-22T18:57:12.925Z,3.30
2023-05-22T18:59:42.312Z,3.40
2023-05-22T19:02:10.888Z,3.70
2023-05-22T19:04:39.437Z,3.90
2023-05-22T19:07:07.881Z,3.27
2023-05-22T19:09:36.393Z,3.30
2023-05-22T19:12:04.905Z,2.93
2023-05-22T19:14:34.655Z,2.80
2023-05-22T19:17:03.096Z,3.23
2023-05-22T19:19:31.690Z,3.70
2023-05-22T19:22:00.129Z,3.40
2023-05-22T19:24:28.667Z,2.90
2023-05-22T19:26:57.192Z,3.03
2023-05-22T19:29:25.520Z,3.33
2023-05-22T19:31:55.340Z,3.00
2023-05-22T19:34:23.712Z,3.00
2023-05-22T19:36:57.591Z,3.50
2023-05-22T19:39:26.071Z,3.53
2023-05-22T19:41:54.492Z,3.60
2023-05-22T19:44:22.951Z,3.70
2023-05-22T19:46:51.476Z,2.80
2023-05-22T19:49:21.341Z,7.80
2023-05-22T19:51:49.712Z,12.20
2023-05-22T19:54:18.135Z,4.70
2023-05-22T19:56:46.533Z,3.70
2023-05-22T19:59:14.914Z,3.03
2023-05-22T20:01:43.366Z,3.30
2023-05-22T20:04:11.845Z,3.97
2023-05-22T20:06:42.128Z,3.50
2023-05-22T20:09:10.525Z,3.30
2023-05-22T20:11:38.885Z,3.80
2023-05-22T20:14:07.685Z,3.47
2023-05-22T20:16:36.244Z,3.20
2023-05-22T20:19:04.919Z,2.93
2023-05-22T20:21:33.373Z,3.17
2023-05-22T20:24:06.079Z,3.63
2023-05-22T20:26:35.535Z,3.93
2023-05-22T20:29:03.865Z,5.07
2023-05-22T20:31:32.170Z,3.57
2023-05-22T20:34:01.927Z,3.03
2023-05-22T20:36:30.265Z,3.50
2023-05-22T20:38:58.922Z,4.27
2023-05-22T20:41:28.768Z,3.60
2023-05-22T20:43:58.642Z,3.47
2023-05-22T20:46:27.730Z,3.73
2023-05-22T20:48:56.509Z,4.20
2023-05-22T20:51:32.309Z,3.60
2023-05-22T20:54:01.023Z,3.20
2023-05-22T20:56:31.063Z,3.17
2023-05-22T20:58:59.466Z,4.10
2023-05-22T21:01:27.969Z,3.30
2023-05-22T21:03:56.987Z,3.50
2023-05-22T21:06:25.348Z,3.60
2023-05-22T21:08:58.909Z,3.13
2023-05-22T21:11:27.495Z,3.20
2023-05-22T21:13:57.264Z,3.97
2023-05-22T21:16:26.058Z,4.03
2023-05-22T21:18:54.409Z,4.30
2023-05-22T21:21:22.811Z,3.23
2023-05-22T21:23:51.421Z,3.90
2023-05-22T21:26:22.305Z,3.80
2023-05-22T21:28:50.851Z,3.93
2023-05-22T21:31:20.749Z,4.67
2023-05-22T21:33:49.097Z,3.40
2023-05-22T21:36:17.660Z,4.30
2023-05-22T21:38:46.129Z,3.50
2023-05-22T21:41:16.803Z,3.40
2023-05-22T21:43:45.613Z,3.83
2023-05-22T21:46:14.108Z,3.90
2023-05-22T21:48:43.987Z,3.83
2023-05-22T21:51:12.324Z,3.67
2023-05-22T21:53:40.718Z,4.27
2023-05-22T21:56:09.733Z,3.87
2023-05-22T21:58:38.140Z,4.67
2023-05-22T22:01:06.722Z,3.67
2023-05-22T22:03:35.189Z,3.60
2023-05-22T22:06:05.354Z,4.33
2023-05-22T22:08:33.673Z,3.97
2023-05-22T22:11:01.976Z,4.10
2023-05-22T22:13:30.694Z,3.80
2023-05-22T22:15:59.467Z,3.57
2023-05-22T22:18:27.952Z,3.70
2023-05-22T22:20:56.314Z,4.40
2023-05-22T22:23:26.118Z,4.40
2023-05-22T22:25:54.511Z,4.00
2023-05-22T22:28:22.906Z,4.13
2023-05-22T22:30:54.843Z,4.00
2023-05-22T22:33:23.575Z,4.30
2023-05-22T22:35:52.328Z,4.30
2023-05-22T22:38:20.695Z,4.53
2023-05-22T22:40:50.774Z,3.57
2023-05-22T22:43:19.115Z,4.03
2023-05-22T22:45:47.635Z,4.33
2023-05-22T22:48:16.569Z,4.43
2023-05-22T22:50:46.855Z,3.93
2023-05-22T22:53:15.248Z,3.90
2023-05-22T22:55:44.309Z,3.63
2023-05-22T22:58:14.228Z,4.00
2023-05-22T23:00:42.553Z,3.70
2023-05-22T23:03:11.422Z,3.77
2023-05-22T23:05:40.051Z,4.17
2023-05-22T23:08:08.693Z,3.47
2023-05-22T23:10:37.099Z,3.20
2023-05-22T23:13:05.475Z,3.13
2023-05-22T23:15:35.575Z,4.00
2023-05-22T23:18:04.009Z,3.47
2023-05-22T23:20:32.413Z,3.30
2023-05-22T23:23:00.811Z,3.30
2023-05-22T23:25:29.217Z,3.70
2023-05-22T23:27:57.637Z,3.83
2023-05-22T23:30:25.994Z,3.87
2023-05-22T23:32:55.744Z,4.50
2023-05-22T23:35:24.203Z,3.40
2023-05-22T23:37:52.619Z,3.80
2023-05-22T23:40:20.987Z,4.10
2023-05-22T23:42:49.340Z,4.27
2023-05-22T23:45:17.660Z,3.80
2023-05-22T23:47:46.051Z,4.30
2023-05-22T23:50:15.876Z,3.93
2023-05-22T23:52:44.168Z,3.70
2023-05-22T23:55:12.502Z,4.70
2023-05-22T23:57:40.868Z,3.60
